createdAt,value
2019-03-31T00:01:48.801Z,5.48
2019-03-31T00:04:17.924Z,5.50
2019-03-31T00:06:47.389Z,5.45
2019-03-31T00:09:17.187Z,5.34
2019-03-31T00:11:49.382Z,5.37
2019-03-31T00:14:18.910Z,5.31
2019-03-31T00:16:48.287Z,5.29
2019-03-31T00:19:17.695Z,5.26
2019-03-31T00:21:46.825Z,5.23
2019-03-31T00:24:15.919Z,5.26
2019-03-31T00:26:46.186Z,5.33
2019-03-31T00:29:16.091Z,5.42
2019-03-31T00:31:45.172Z,5.44
2019-03-31T00:34:15.182Z,5.35
2019-03-31T00:36:44.920Z,5.32
2019-03-31T00:39:15.201Z,5.26
2019-03-31T00:41:44.319Z,5.28
2019-03-31T00:44:17.362Z,5.33
2019-03-31T00:46:47.205Z,5.37
2019-03-31T00:49:17.190Z,5.37
2019-03-31T00:51:46.307Z,5.37
2019-03-31T00:54:18.413Z,5.40
2019-03-31T00:56:47.511Z,5.31
2019-03-31T00:59:16.969Z,5.23
2019-03-31T01:01:57.715Z,5.16
2019-03-31T01:04:29.124Z,5.09
2019-03-31T01:06:59.213Z,5.04
2019-03-31T01:09:30.631Z,5.04
2019-03-31T01:12:03.464Z,4.94
2019-03-31T01:14:32.546Z,4.87
2019-03-31T01:17:02.360Z,4.83
2019-03-31T01:19:31.452Z,4.75
2019-03-31T01:22:01.432Z,4.83
2019-03-31T01:24:33.710Z,4.95
2019-03-31T01:27:03.367Z,5.11
2019-03-31T01:29:34.024Z,5.15
2019-03-31T01:32:03.107Z,5.19
2019-03-31T01:34:32.991Z,5.17
2019-03-31T01:37:02.672Z,5.16
2019-03-31T01:39:33.208Z,5.09
2019-03-31T01:42:02.298Z,5.01
2019-03-31T01:44:50.776Z,5.01
2019-03-31T01:47:19.854Z,5.03
2019-03-31T01:49:52.091Z,5.02
2019-03-31T01:52:21.593Z,4.99
2019-03-31T01:54:52.045Z,4.91
2019-03-31T01:57:22.285Z,4.86
2019-03-31T01:59:55.571Z,4.78
2019-03-31T02:02:28.160Z,4.67
2019-03-31T02:05:00.577Z,4.64
2019-03-31T02:07:33.001Z,4.69
2019-03-31T02:10:02.149Z,4.57
2019-03-31T02:12:34.351Z,4.49
2019-03-31T02:15:07.266Z,4.42
2019-03-31T02:17:36.333Z,4.47
2019-03-31T02:20:06.917Z,4.50
2019-03-31T02:22:36.299Z,4.49
2019-03-31T02:25:09.677Z,4.45
2019-03-31T02:27:44.007Z,4.55
2019-03-31T02:30:13.241Z,4.47
2019-03-31T02:32:42.307Z,4.44
2019-03-31T02:35:11.427Z,4.50
2019-03-31T02:37:41.670Z,4.56
2019-03-31T02:40:12.849Z,4.62
2019-03-31T02:42:42.462Z,4.54
2019-03-31T02:45:11.867Z,4.49
2019-03-31T02:47:40.977Z,4.48
2019-03-31T02:50:15.552Z,4.49
2019-03-31T02:52:44.668Z,4.43
2019-03-31T02:55:13.783Z,4.41
2019-03-31T02:57:45.970Z,4.44
2019-03-31T03:00:16.050Z,4.39
2019-03-31T03:02:46.126Z,4.26
2019-03-31T03:05:19.934Z,4.21
2019-03-31T03:07:47.163Z,4.20
2019-03-31T03:10:20.102Z,4.19
2019-03-31T03:12:49.894Z,4.29
2019-03-31T03:15:26.974Z,4.16
2019-03-31T03:17:56.311Z,4.15
2019-03-31T03:20:25.725Z,4.14
2019-03-31T03:22:54.808Z,4.18
2019-03-31T03:25:24.310Z,4.26
2019-03-31T03:27:53.424Z,4.19
2019-03-31T03:30:22.707Z,4.19
2019-03-31T03:33:13.380Z,4.22
2019-03-31T03:35:23.865Z,4.21
2019-03-31T03:37:52.929Z,4.21
2019-03-31T03:40:23.896Z,4.20
2019-03-31T03:42:52.969Z,4.20
2019-03-31T03:45:25.531Z,4.31
2019-03-31T03:47:57.027Z,4.27
2019-03-31T03:50:27.191Z,4.21
2019-03-31T03:52:56.290Z,4.17
2019-03-31T03:55:29.062Z,4.19
2019-03-31T03:57:58.170Z,4.21
2019-03-31T04:00:27.305Z,4.25
2019-03-31T04:02:56.759Z,4.30
2019-03-31T04:05:25.904Z,4.32
2019-03-31T04:07:55.578Z,4.42
2019-03-31T04:11:14.600Z,4.42
2019-03-31T04:13:44.451Z,4.44
2019-03-31T04:16:13.853Z,4.45
2019-03-31T04:18:45.900Z,4.41
2019-03-31T04:21:15.044Z,4.42
2019-03-31T04:23:44.644Z,4.49
2019-03-31T04:26:13.744Z,4.60
2019-03-31T04:28:43.256Z,4.64
2019-03-31T04:31:15.447Z,4.69
2019-03-31T04:33:52.183Z,4.66
2019-03-31T04:36:21.779Z,4.73
2019-03-31T04:38:51.803Z,4.78
2019-03-31T04:41:22.197Z,4.80
2019-03-31T04:43:52.440Z,4.86
2019-03-31T04:46:21.967Z,4.90
2019-03-31T04:48:51.429Z,4.97
2019-03-31T04:51:20.874Z,4.97
2019-03-31T04:53:50.671Z,4.92
2019-03-31T04:56:19.820Z,4.92
2019-03-31T04:58:49.122Z,4.89
2019-03-31T05:01:18.607Z,4.79
2019-03-31T05:04:03.463Z,4.73
2019-03-31T05:06:23.090Z,4.72
2019-03-31T05:08:52.787Z,4.73
2019-03-31T05:11:25.320Z,4.75
2019-03-31T05:13:54.789Z,4.75
2019-03-31T05:16:24.320Z,4.78
2019-03-31T05:18:53.396Z,4.80
2019-03-31T05:21:22.500Z,4.95
2019-03-31T05:23:52.303Z,4.98
2019-03-31T05:26:22.073Z,5.03
2019-03-31T05:28:51.896Z,5.08
2019-03-31T05:31:22.077Z,5.21
2019-03-31T05:33:51.497Z,5.33
2019-03-31T05:36:20.859Z,5.43
2019-03-31T05:38:49.931Z,5.52
2019-03-31T05:41:19.059Z,5.56
2019-03-31T05:43:49.300Z,5.59
2019-03-31T05:46:23.600Z,5.63
2019-03-31T05:48:55.797Z,5.73
2019-03-31T05:51:29.011Z,5.87
2019-03-31T05:53:58.400Z,5.96
2019-03-31T05:56:29.746Z,6.13
2019-03-31T05:58:59.560Z,6.21
2019-03-31T06:01:29.058Z,6.24
2019-03-31T06:04:00.805Z,6.29
2019-03-31T06:06:30.217Z,6.45
2019-03-31T06:08:59.327Z,6.47
2019-03-31T06:11:28.449Z,6.44
2019-03-31T06:13:57.583Z,6.59
2019-03-31T06:16:26.705Z,6.52
2019-03-31T06:18:56.212Z,6.55
2019-03-31T06:21:25.303Z,6.55
2019-03-31T06:23:57.484Z,6.49
2019-03-31T06:26:26.563Z,6.61
2019-03-31T06:28:56.106Z,6.72
2019-03-31T06:31:25.564Z,6.67
2019-03-31T06:33:54.674Z,6.66
2019-03-31T06:36:23.766Z,6.76
2019-03-31T06:38:52.887Z,6.73
2019-03-31T06:41:22.249Z,6.69
2019-03-31T06:43:51.361Z,6.77
2019-03-31T06:46:20.745Z,6.99
2019-03-31T06:48:50.188Z,7.04
2019-03-31T06:51:20.408Z,7.04
2019-03-31T06:53:52.016Z,7.13
2019-03-31T06:56:21.113Z,7.26
2019-03-31T06:58:50.254Z,7.30
2019-03-31T07:01:23.307Z,7.25
2019-03-31T07:03:52.739Z,7.39
2019-03-31T07:06:22.239Z,7.39
2019-03-31T07:08:54.585Z,7.29
2019-03-31T07:11:23.979Z,7.27
2019-03-31T07:13:53.090Z,7.37
2019-03-31T07:16:22.176Z,7.26
2019-03-31T07:18:51.293Z,7.28
2019-03-31T07:21:20.399Z,7.29
2019-03-31T07:23:49.526Z,7.46
2019-03-31T07:26:18.600Z,7.49
2019-03-31T07:28:47.897Z,7.58
2019-03-31T07:31:23.721Z,7.52
2019-03-31T07:34:03.581Z,7.66
2019-03-31T07:36:34.467Z,7.84
2019-03-31T07:39:07.350Z,7.93
2019-03-31T07:41:37.391Z,8.09
2019-03-31T07:44:06.809Z,8.43
2019-03-31T07:46:35.888Z,8.66
2019-03-31T07:49:05.717Z,8.65
2019-03-31T07:51:37.516Z,8.72
2019-03-31T07:54:05.628Z,8.60
2019-03-31T07:56:35.184Z,9.02
2019-03-31T07:59:05.275Z,9.27
2019-03-31T08:01:36.889Z,9.41
2019-03-31T08:04:08.070Z,9.35
2019-03-31T08:06:40.588Z,9.18
2019-03-31T08:09:10.118Z,9.11
2019-03-31T08:11:39.949Z,8.95
2019-03-31T08:14:12.512Z,9.12
2019-03-31T08:16:42.303Z,9.21
2019-03-31T08:19:11.402Z,9.54
2019-03-31T08:21:43.768Z,9.59
2019-03-31T08:24:16.254Z,9.19
2019-03-31T08:26:45.350Z,9.44
2019-03-31T08:29:35.671Z,9.50
2019-03-31T08:32:07.305Z,9.74
2019-03-31T08:34:50.816Z,9.81
2019-03-31T08:37:46.104Z,9.73
2019-03-31T08:40:15.167Z,9.80
2019-03-31T08:42:47.759Z,9.93
2019-03-31T08:45:18.480Z,10.05
2019-03-31T08:47:48.158Z,10.20
2019-03-31T08:50:17.264Z,10.16
2019-03-31T08:52:47.435Z,10.19
2019-03-31T08:55:16.532Z,10.11
2019-03-31T08:57:45.971Z,10.21
2019-03-31T09:00:49.689Z,9.92
2019-03-31T09:03:18.777Z,9.89
2019-03-31T09:06:01.069Z,9.78
2019-03-31T09:08:19.421Z,9.92
2019-03-31T09:10:49.301Z,9.68
2019-03-31T09:13:22.141Z,9.72
2019-03-31T09:15:51.633Z,9.61
2019-03-31T09:18:21.213Z,9.53
2019-03-31T09:20:50.655Z,9.70
2019-03-31T09:23:19.764Z,9.52
2019-03-31T09:25:49.547Z,9.36
2019-03-31T09:28:19.411Z,9.41
2019-03-31T09:30:51.841Z,9.50
2019-03-31T09:33:20.962Z,9.51
2019-03-31T09:35:51.211Z,9.23
2019-03-31T09:38:21.057Z,9.18
2019-03-31T09:40:52.845Z,9.30
2019-03-31T09:43:28.348Z,9.37
2019-03-31T09:46:06.203Z,9.44
2019-03-31T09:48:35.310Z,9.37
2019-03-31T09:51:09.219Z,9.43
2019-03-31T09:53:38.295Z,9.56
2019-03-31T09:56:14.999Z,9.52
2019-03-31T09:58:43.198Z,9.50
2019-03-31T10:01:12.324Z,9.39
2019-03-31T10:03:41.418Z,9.28
2019-03-31T10:06:11.377Z,9.33
2019-03-31T10:08:46.698Z,9.30
2019-03-31T10:11:16.085Z,9.35
2019-03-31T10:13:47.122Z,9.41
2019-03-31T10:16:16.866Z,9.50
2019-03-31T10:18:46.675Z,9.52
2019-03-31T10:21:25.073Z,9.49
2019-03-31T10:23:54.513Z,9.59
2019-03-31T10:26:31.865Z,9.56
2019-03-31T10:28:56.735Z,9.75
2019-03-31T10:31:26.159Z,9.81
2019-03-31T10:33:58.405Z,9.91
2019-03-31T10:36:27.467Z,10.01
2019-03-31T10:38:56.777Z,10.07
2019-03-31T10:41:31.041Z,10.15
2019-03-31T10:44:00.858Z,10.20
2019-03-31T10:46:29.940Z,10.34
2019-03-31T10:48:59.366Z,10.40
2019-03-31T10:51:28.872Z,10.55
2019-03-31T10:53:58.442Z,10.57
2019-03-31T10:56:28.255Z,10.64
2019-03-31T10:58:58.243Z,10.57
2019-03-31T11:01:30.473Z,10.34
2019-03-31T11:03:59.541Z,10.63
2019-03-31T11:06:28.724Z,10.78
2019-03-31T11:09:00.349Z,10.67
2019-03-31T11:11:31.997Z,10.57
2019-03-31T11:14:01.732Z,10.57
2019-03-31T11:16:36.287Z,10.60
2019-03-31T11:19:05.369Z,10.56
2019-03-31T11:21:42.420Z,10.66
2019-03-31T11:24:11.767Z,10.61
2019-03-31T11:26:40.881Z,10.73
2019-03-31T11:29:10.286Z,10.88
2019-03-31T11:31:39.430Z,10.91
2019-03-31T11:34:10.916Z,11.09
2019-03-31T11:36:40.049Z,11.23
2019-03-31T11:39:09.120Z,11.30
2019-03-31T11:41:38.254Z,11.48
2019-03-31T11:44:07.711Z,11.51
2019-03-31T11:46:40.467Z,11.38
2019-03-31T11:49:09.564Z,11.49
2019-03-31T11:51:39.345Z,11.41
2019-03-31T11:54:08.718Z,11.36
2019-03-31T11:56:38.183Z,11.44
2019-03-31T11:59:07.565Z,11.61
2019-03-31T12:01:40.074Z,11.57
2019-03-31T12:04:09.851Z,11.96
2019-03-31T12:06:42.343Z,11.81
2019-03-31T12:09:11.425Z,11.92
2019-03-31T12:11:45.534Z,12.18
2019-03-31T12:14:13.393Z,12.07
2019-03-31T12:16:46.190Z,11.80
2019-03-31T12:19:17.482Z,11.82
2019-03-31T12:21:46.860Z,11.94
2019-03-31T12:24:16.233Z,11.93
2019-03-31T12:26:45.345Z,11.81
2019-03-31T12:29:14.923Z,11.67
2019-03-31T12:31:44.037Z,11.66
2019-03-31T12:34:13.128Z,11.52
2019-03-31T12:36:42.269Z,11.90
2019-03-31T12:39:15.333Z,11.95
2019-03-31T12:41:44.434Z,12.03
2019-03-31T12:44:16.232Z,12.00
2019-03-31T12:46:45.659Z,12.06
2019-03-31T12:49:14.770Z,12.13
2019-03-31T12:51:43.910Z,12.18
2019-03-31T12:54:13.175Z,12.20
2019-03-31T12:56:42.292Z,12.05
2019-03-31T12:59:11.758Z,11.75
2019-03-31T13:01:41.180Z,11.54
2019-03-31T13:04:10.682Z,11.49
2019-03-31T13:06:43.145Z,11.36
2019-03-31T13:09:12.232Z,11.23
2019-03-31T13:11:42.055Z,11.68
2019-03-31T13:14:11.570Z,12.08
2019-03-31T13:16:40.960Z,12.38
2019-03-31T13:19:10.058Z,12.58
2019-03-31T13:21:39.483Z,12.69
2019-03-31T13:24:08.564Z,12.71
2019-03-31T13:26:37.666Z,13.11
2019-03-31T13:29:06.750Z,13.02
2019-03-31T13:31:36.200Z,12.95
2019-03-31T13:34:05.839Z,12.72
2019-03-31T13:36:34.950Z,12.59
2019-03-31T13:39:06.015Z,12.57
2019-03-31T13:41:35.153Z,12.59
2019-03-31T13:44:07.552Z,12.40
2019-03-31T13:46:37.355Z,12.12
2019-03-31T13:49:06.496Z,12.16
2019-03-31T13:51:36.305Z,12.16
2019-03-31T13:54:05.454Z,12.46
2019-03-31T13:56:34.957Z,12.63
2019-03-31T13:59:04.668Z,12.86
2019-03-31T14:01:34.413Z,13.05
2019-03-31T14:04:03.940Z,13.05
2019-03-31T14:06:33.453Z,12.64
2019-03-31T14:09:02.649Z,12.48
2019-03-31T14:11:51.567Z,12.31
2019-03-31T14:14:21.350Z,12.12
2019-03-31T14:16:50.459Z,11.78
2019-03-31T14:19:19.882Z,11.70
2019-03-31T14:21:49.112Z,11.88
2019-03-31T14:24:18.232Z,11.74
2019-03-31T14:26:47.924Z,11.83
2019-03-31T14:29:17.842Z,11.92
2019-03-31T14:31:47.411Z,11.98
2019-03-31T14:34:17.261Z,12.11
2019-03-31T14:36:46.398Z,12.39
2019-03-31T14:39:17.252Z,12.43
2019-03-31T14:41:47.207Z,12.79
2019-03-31T14:44:17.374Z,13.18
2019-03-31T14:46:47.141Z,13.03
2019-03-31T14:49:16.652Z,12.83
2019-03-31T14:51:48.848Z,12.79
2019-03-31T14:54:21.342Z,12.72
2019-03-31T14:56:50.670Z,12.47
2019-03-31T14:59:20.096Z,12.31
2019-03-31T15:01:49.214Z,12.23
2019-03-31T15:04:18.334Z,12.18
2019-03-31T15:06:47.425Z,12.11
2019-03-31T15:09:19.898Z,12.10
2019-03-31T15:11:48.979Z,12.07
2019-03-31T15:14:18.098Z,12.01
2019-03-31T15:16:50.237Z,12.06
2019-03-31T15:19:19.350Z,12.09
2019-03-31T15:21:48.475Z,11.97
2019-03-31T15:24:17.560Z,11.98
2019-03-31T15:26:46.649Z,11.97
2019-03-31T15:29:16.084Z,11.90
2019-03-31T15:31:49.855Z,11.88
2019-03-31T15:34:18.935Z,11.82
2019-03-31T15:36:49.003Z,12.00
2019-03-31T15:39:23.804Z,12.08
2019-03-31T15:41:53.165Z,12.25
2019-03-31T15:44:23.100Z,12.06
2019-03-31T15:46:56.861Z,12.29
2019-03-31T15:49:25.144Z,12.34
2019-03-31T15:51:54.196Z,12.31
2019-03-31T15:54:23.284Z,12.25
2019-03-31T15:56:53.065Z,12.22
2019-03-31T15:59:22.633Z,12.08
2019-03-31T16:01:51.993Z,11.85
2019-03-31T16:04:21.091Z,11.84
2019-03-31T16:06:50.883Z,11.90
2019-03-31T16:09:23.681Z,12.00
2019-03-31T16:11:53.880Z,11.89
2019-03-31T16:14:22.202Z,11.82
2019-03-31T16:16:52.603Z,11.89
2019-03-31T16:19:21.526Z,12.01
2019-03-31T16:21:55.135Z,11.94
2019-03-31T16:24:37.615Z,11.88
2019-03-31T16:27:08.065Z,11.67
2019-03-31T16:29:36.630Z,11.60
2019-03-31T16:32:06.165Z,11.48
2019-03-31T16:34:35.110Z,11.52
2019-03-31T16:37:05.211Z,11.56
2019-03-31T16:39:37.763Z,11.67
2019-03-31T16:42:05.183Z,11.68
2019-03-31T16:44:38.769Z,11.80
2019-03-31T16:47:07.695Z,11.98
2019-03-31T16:49:36.604Z,12.00
2019-03-31T16:52:06.719Z,12.07
2019-03-31T16:54:37.885Z,11.71
2019-03-31T16:57:07.282Z,11.78
2019-03-31T16:59:40.454Z,11.90
2019-03-31T17:02:09.419Z,11.92
2019-03-31T17:04:38.462Z,11.88
2019-03-31T17:07:07.397Z,11.93
2019-03-31T17:09:51.303Z,11.98
2019-03-31T17:12:12.611Z,12.06
2019-03-31T17:14:46.205Z,12.09
2019-03-31T17:17:20.188Z,11.97
2019-03-31T17:19:49.639Z,11.75
2019-03-31T17:22:23.720Z,11.72
2019-03-31T17:24:53.974Z,11.76
2019-03-31T17:27:26.215Z,11.82
2019-03-31T17:30:01.221Z,11.75
2019-03-31T17:32:44.779Z,11.46
2019-03-31T17:35:20.717Z,11.23
2019-03-31T17:37:51.043Z,10.66
2019-03-31T17:40:35.847Z,10.31
2019-03-31T17:43:06.209Z,10.01
2019-03-31T17:45:37.607Z,9.85
2019-03-31T17:48:06.163Z,9.65
2019-03-31T17:50:35.311Z,9.51
2019-03-31T17:53:06.816Z,9.44
2019-03-31T17:55:37.715Z,9.38
2019-03-31T17:58:09.655Z,9.21
2019-03-31T18:00:39.603Z,8.98
2019-03-31T18:03:08.751Z,8.80
2019-03-31T18:05:37.505Z,8.88
2019-03-31T18:08:11.265Z,8.76
2019-03-31T18:10:41.853Z,8.74
2019-03-31T18:13:11.092Z,8.68
2019-03-31T18:15:41.032Z,8.57
2019-03-31T18:18:09.758Z,8.51
2019-03-31T18:20:38.515Z,8.51
2019-03-31T18:23:07.057Z,8.46
2019-03-31T18:25:40.267Z,8.33
2019-03-31T18:28:13.470Z,8.31
2019-03-31T18:30:45.817Z,8.28
2019-03-31T18:33:16.527Z,8.27
2019-03-31T18:35:45.273Z,8.11
2019-03-31T18:38:15.371Z,7.94
2019-03-31T18:40:44.266Z,7.94
2019-03-31T18:43:14.184Z,7.85
2019-03-31T18:45:45.626Z,7.79
2019-03-31T18:48:16.629Z,7.60
2019-03-31T18:50:45.189Z,7.47
2019-03-31T18:53:18.118Z,7.30
2019-03-31T18:56:16.299Z,7.08
2019-03-31T18:58:57.912Z,6.92
2019-03-31T19:01:59.258Z,6.56
2019-03-31T19:04:41.976Z,6.50
2019-03-31T19:07:55.501Z,6.49
2019-03-31T19:10:48.792Z,6.40
2019-03-31T19:13:19.305Z,6.48
2019-03-31T19:16:09.851Z,6.34
2019-03-31T19:19:00.175Z,6.15
2019-03-31T19:22:08.762Z,6.00
2019-03-31T19:24:50.174Z,5.88
2019-03-31T19:27:34.581Z,5.76
2019-03-31T19:30:34.889Z,5.67
2019-03-31T19:33:20.155Z,5.48
2019-03-31T19:36:06.296Z,5.42
2019-03-31T19:38:46.215Z,5.32
2019-03-31T19:41:53.309Z,5.19
2019-03-31T19:44:48.499Z,5.20
2019-03-31T19:47:28.169Z,5.14
2019-03-31T19:50:11.070Z,5.11
2019-03-31T19:52:55.935Z,5.05
2019-03-31T19:55:45.707Z,5.12
2019-03-31T19:58:33.848Z,5.18
2019-03-31T20:01:15.483Z,5.17
2019-03-31T20:04:13.528Z,5.15
2019-03-31T20:06:49.299Z,5.10
2019-03-31T20:09:40.294Z,5.01
2019-03-31T20:12:40.408Z,4.98
2019-03-31T20:15:24.770Z,4.88
2019-03-31T20:18:12.709Z,4.81
2019-03-31T20:20:53.992Z,4.76
2019-03-31T20:23:54.269Z,4.72
2019-03-31T20:26:36.425Z,4.67
2019-03-31T20:29:10.038Z,4.66
2019-03-31T20:31:56.136Z,4.66
2019-03-31T20:34:39.437Z,4.60
2019-03-31T20:37:17.568Z,4.62
2019-03-31T20:40:01.090Z,4.59
2019-03-31T20:42:52.105Z,4.57
2019-03-31T20:45:21.230Z,4.50
2019-03-31T20:47:50.386Z,4.50
2019-03-31T20:50:19.868Z,4.49
2019-03-31T20:52:48.795Z,4.45
2019-03-31T20:55:19.412Z,4.40
2019-03-31T20:57:50.143Z,4.36
2019-03-31T21:00:19.528Z,4.33
2019-03-31T21:02:50.580Z,4.31
2019-03-31T21:05:22.730Z,4.31
2019-03-31T21:07:51.643Z,4.35
2019-03-31T21:10:20.717Z,4.38
2019-03-31T21:13:13.475Z,4.38
2019-03-31T21:15:42.092Z,4.36
2019-03-31T21:18:19.368Z,4.39
2019-03-31T21:20:48.318Z,4.41
2019-03-31T21:23:19.036Z,4.45
2019-03-31T21:25:49.899Z,4.38
2019-03-31T21:28:22.397Z,4.20
2019-03-31T21:30:52.320Z,4.12
2019-03-31T21:33:24.496Z,4.09
2019-03-31T21:35:57.806Z,4.04
2019-03-31T21:38:26.765Z,3.95
2019-03-31T21:40:55.322Z,3.90
2019-03-31T21:43:29.030Z,3.91
2019-03-31T21:45:59.574Z,3.92
2019-03-31T21:48:28.383Z,3.86
2019-03-31T21:50:57.151Z,3.80
2019-03-31T21:53:29.642Z,3.73
2019-03-31T21:55:58.383Z,3.73
2019-03-31T21:58:32.087Z,3.69
2019-03-31T22:01:01.160Z,3.64
2019-03-31T22:03:30.111Z,3.67
2019-03-31T22:05:59.002Z,3.63
2019-03-31T22:08:28.239Z,3.62
2019-03-31T22:10:57.702Z,3.71
2019-03-31T22:13:26.461Z,3.63
2019-03-31T22:15:55.011Z,3.65
2019-03-31T22:18:25.533Z,3.66
2019-03-31T22:20:56.052Z,3.63
2019-03-31T22:23:26.946Z,3.58
2019-03-31T22:25:55.854Z,3.50
2019-03-31T22:28:29.626Z,3.42
2019-03-31T22:31:02.909Z,3.37
2019-03-31T22:33:33.016Z,3.38
2019-03-31T22:36:19.417Z,3.32
2019-03-31T22:38:56.796Z,3.40
2019-03-31T22:41:25.347Z,3.35
2019-03-31T22:43:55.290Z,3.37
2019-03-31T22:46:24.200Z,3.21
2019-03-31T22:48:57.449Z,3.17
2019-03-31T22:51:29.327Z,3.12
2019-03-31T22:53:57.877Z,3.15
2019-03-31T22:56:32.250Z,3.05
2019-03-31T22:59:09.628Z,3.02
2019-03-31T23:01:37.119Z,2.85
2019-03-31T23:04:08.018Z,2.88
2019-03-31T23:06:36.584Z,2.67
2019-03-31T23:09:10.958Z,2.66
2019-03-31T23:11:39.939Z,2.70
2019-03-31T23:14:10.635Z,2.65
2019-03-31T23:16:39.221Z,2.48
2019-03-31T23:19:11.313Z,2.47
2019-03-31T23:21:41.833Z,2.41
2019-03-31T23:24:10.402Z,2.43
2019-03-31T23:26:41.522Z,2.40
2019-03-31T23:29:11.728Z,2.34
2019-03-31T23:31:44.956Z,2.23
2019-03-31T23:34:13.708Z,2.12
2019-03-31T23:36:42.925Z,2.19
2019-03-31T23:39:11.906Z,2.27
2019-03-31T23:41:41.995Z,2.25
2019-03-31T23:44:11.068Z,2.30
2019-03-31T23:46:40.269Z,2.19
2019-03-31T23:49:10.827Z,2.18
2019-03-31T23:51:44.506Z,2.04
2019-03-31T23:54:17.826Z,2.04
2019-03-31T23:56:50.079Z,2.02
2019-03-31T23:59:18.841Z,2.04
